Data for 03/24/2005

Time Sea-Level Adjusted Pressure Absolute Pressure Temperature Relative Humidity Dew Point   
(mb) (inHg) (mb) (inHg) (C) (F) (%) (C) (F)
00:05 1014 29.94 843 24.89 -8.6 16.6 87 -10.4 13.3
00:10 1014 29.94 843 24.89 -8.5 16.6 86 -10.5 13.1
00:15 1014 29.94 843 24.89 -8.5 16.7 86 -10.5 13.1
00:20 1014 29.94 843 24.89 -8.5 16.6 86 -10.5 13.1
00:25 1014 29.94 843 24.89 -8.5 16.8 86 -10.4 13.2
00:30 1014 29.94 843 24.89 -8.5 16.7 85 -10.6 12.9
00:35 1014 29.94 843 24.89 -8.5 16.8 85 -10.5 13.1
00:40 1014 29.94 843 24.89 -8.5 16.7 84 -10.7 12.7
00:45 1014 29.94 843 24.89 -8.5 16.8 84 -10.6 12.9
00:50 1014 29.94 843 24.89 -8.4 16.8 84 -10.6 12.9
00:55 1014 29.94 843 24.89 -8.4 16.9 83 -10.8 12.6
01:00 1014 29.94 843 24.89 -8.4 16.9 83 -10.8 12.6
01:05 1014 29.94 843 24.89 -8.5 16.7 83 -10.8 12.5
01:10 1014 29.94 843 24.89 -8.5 16.8 85 -10.6 12.9
01:15 1014 29.94 843 24.89 -8.5 16.7 85 -10.6 13
01:20 1014 29.94 843 24.89 -8.6 16.6 86 -10.5 13.1
01:25 1014 29.94 843 24.89 -8.6 16.4 86 -10.5 13.1
01:30 1014 29.94 843 24.89 -8.7 16.4 87 -10.4 13.3
01:35 1014 29.94 843 24.89 -8.7 16.3 87 -10.5 13.2
01:40 1014 29.94 843 24.89 -8.7 16.3 88 -10.3 13.4
01:45 1014 29.94 843 24.89 -8.8 16.2 88 -10.5 13.2
01:50 1014 29.94 843 24.89 -8.9 16 89 -10.4 13.2
01:55 1014 29.94 843 24.89 -8.9 16 89 -10.4 13.2
02:00 1014 29.94 843 24.89 -8.9 16 88 -10.5 13.2
02:05 1014 29.94 843 24.89 -8.8 16.1 89 -10.4 13.3
02:10 1014 29.94 843 24.89 -8.8 16.2 88 -10.4 13.3
02:15 1014 29.94 843 24.89 -8.7 16.3 88 -10.4 13.4
02:20 1014 29.94 843 24.89 -8.7 16.3 88 -10.3 13.4
02:25 1014 29.94 843 24.89 -8.7 16.3 87 -10.5 13.2
02:30 1014 29.94 843 24.89 -8.7 16.4 87 -10.5 13.1
02:35 1014 29.94 843 24.89 -8.7 16.4 87 -10.4 13.2
02:40 1014 29.94 843 24.89 -8.7 16.4 87 -10.5 13.2
02:45 1014 29.94 843 24.89 -8.7 16.4 88 -10.3 13.5
02:50 1014 29.94 843 24.89 -8.7 16.4 87 -10.4 13.2
02:55 1014 29.94 843 24.89 -8.7 16.3 86 -10.6 12.8
03:00 1014 29.94 843 24.89 -8.7 16.3 87 -10.5 13
03:05 1014 29.94 843 24.89 -8.7 16.4 88 -10.3 13.4
03:10 1014 29.94 843 24.89 -8.6 16.4 88 -10.3 13.5
03:15 1014 29.94 844 24.92 -8.6 16.5 88 -10.2 13.6
03:20 1014 29.94 844 24.92 -8.6 16.5 90 -10 14
03:25 1014 29.94 844 24.92 -8.6 16.5 90 -10 14
03:30 1014 29.94 844 24.92 -8.7 16.4 91 -9.9 14.2
03:35 1014 29.94 844 24.92 -8.6 16.5 90 -10 14
03:40 1014 29.94 844 24.92 -8.6 16.5 91 -9.9 14.2
03:45 1014 29.94 844 24.92 -8.6 16.5 91 -9.8 14.4
03:50 1015 29.97 844 24.92 -8.6 16.5 91 -9.8 14.4
03:55 1015 29.97 844 24.92 -8.7 16.4 91 -9.9 14.2
04:00 1015 29.97 844 24.92 -8.7 16.4 92 -9.8 14.3
04:05 1015 29.97 844 24.92 -8.7 16.4 91 -9.9 14.3
04:10 1015 29.97 844 24.92 -8.8 16.2 92 -9.9 14.2
04:15 1015 29.97 844 24.92 -8.8 16.3 92 -9.9 14.2
04:20 1015 29.97 844 24.92 -8.8 16.3 92 -9.9 14.2
04:25 1015 29.97 844 24.92 -8.8 16.2 91 -9.9 14.1
04:30 1015 29.97 844 24.92 -8.8 16.2 92 -9.9 14.1
04:35 1015 29.97 844 24.92 -8.9 16 92 -10 14
04:40 1015 29.97 844 24.92 -8.8 16.1 92 -9.9 14.2
04:45 1015 29.97 844 24.92 -8.8 16.2 92 -9.9 14.3
04:50 1015 29.97 844 24.92 -8.8 16.2 92 -9.9 14.2
04:55 1015 29.97 844 24.92 -8.9 16 92 -9.9 14.1
05:00 1015 29.97 844 24.92 -8.9 16 92 -10 14
05:05 1015 29.97 844 24.92 -9 15.8 92 -10.1 13.9
05:10 1015 29.97 844 24.92 -9 15.9 91 -10.1 13.8
05:15 1015 29.97 844 24.92 -9 15.9 91 -10.1 13.8
05:20 1015 29.97 844 24.92 -9 15.9 91 -10.1 13.8
05:25 1015 29.97 844 24.92 -8.9 16.1 91 -10 13.9
05:30 1015 29.97 844 24.92 -8.8 16.2 91 -10 14
05:35 1015 29.97 844 24.92 -8.8 16.3 91 -10 14.1
05:40 1015 29.97 844 24.92 -8.7 16.3 89 -10.2 13.7
05:45 1015 29.97 844 24.92 -8.8 16.1 91 -10.1 13.9
05:50 1015 29.97 844 24.92 -8.8 16.2 90 -10.1 13.8
05:55 1015 29.97 844 24.92 -8.9 16.1 90 -10.2 13.7
06:00 1015 29.97 844 24.92 -8.9 16 90 -10.2 13.6
06:05 1015 29.97 845 24.95 -8.8 16.1 91 -10.1 13.8
06:10 1015 29.97 845 24.95 -8.9 16.1 91 -10.1 13.8
06:15 1015 29.97 845 24.95 -8.8 16.1 90 -10.2 13.6
06:20 1015 29.97 845 24.95 -8.8 16.1 90 -10.1 13.8
06:25 1015 29.97 845 24.95 -8.8 16.1 91 -10.1 13.8
06:30 1016 30 845 24.95 -8.8 16.2 90 -10.1 13.7
06:35 1016 30 845 24.95 -8.7 16.3 89 -10.2 13.7
06:40 1016 30 845 24.95 -8.7 16.4 90 -10 13.9
06:45 1016 30 845 24.95 -8.7 16.4 90 -10 13.9
06:50 1016 30 845 24.95 -8.7 16.4 90 -10 13.9
06:55 1016 30 845 24.95 -8.7 16.4 90 -10 14.1
07:00 1016 30 845 24.95 -8.7 16.4 90 -10.1 13.9
07:05 1016 30 845 24.95 -8.6 16.5 89 -10.1 13.9
07:10 1016 30 845 24.95 -8.6 16.5 89 -10.1 13.9
07:15 1016 30 845 24.95 -8.5 16.6 89 -10.1 13.8
07:20 1016 30 845 24.95 -8.4 16.8 88 -10.1 13.9
07:25 1016 30 845 24.95 -8.3 17 88 -10 14.1
07:30 1016 30 845 24.95 -8.3 17.1 87 -10 14
07:35 1016 30 845 24.95 -8.3 17.2 86 -10.2 13.7
07:40 1016 30 845 24.95 -8.2 17.3 87 -10 14
07:45 1016 30 845 24.95 -8 17.5 86 -10 14
07:50 1016 30 845 24.95 -8 17.6 83 -10.4 13.2
07:55 1016 30 845 24.95 -8.2 17.3 84 -10.5 13.2
08:00 1016 30 845 24.95 -7.9 17.8 86 -9.9 14.2
08:05 1016 30 845 24.95 -7.7 18.2 86 -9.7 14.6
08:10 1016 30 845 24.95 -7.5 18.5 86 -9.5 15
08:15 1016 30 845 24.95 -7.4 18.6 84 -9.6 14.7
08:20 1016 30 846 24.98 -7.5 18.6 85 -9.6 14.8
08:25 1016 30 846 24.98 -7.4 18.7 84 -9.6 14.7
08:30 1016 30 846 24.98 -7.3 18.9 83 -9.6 14.6
08:35 1016 30 846 24.98 -7.2 19.1 84 -9.5 14.9
08:40 1016 30 846 24.98 -7.2 19 82 -9.8 14.4
08:45 1017 30.03 846 24.98 -7.2 19.1 82 -9.7 14.6
08:50 1017 30.03 846 24.98 -7.1 19.3 82 -9.7 14.5
08:55 1017 30.03 846 24.98 -7 19.4 81 -9.7 14.6
09:00 1017 30.03 846 24.98 -6.7 20 78 -10 14.1
09:05 1017 30.03 846 24.98 -6.9 19.6 82 -9.5 14.9
09:10 1017 30.03 846 24.98 -6.6 20.1 77 -9.9 14.1
09:15 1017 30.03 846 24.98 -6.3 20.7 77 -9.7 14.5
09:20 1017 30.03 846 24.98 -6.3 20.7 78 -9.5 15
09:25 1017 30.03 846 24.98 -6.5 20.2 82 -9.1 15.6
09:30 1017 30.03 846 24.98 -7.1 19.2 83 -9.6 14.8
09:35 1017 30.03 846 24.98 -7.2 19.1 83 -9.5 14.9
09:40 1017 30.03 846 24.98 -7.4 18.7 84 -9.7 14.6
09:45 1017 30.03 846 24.98 -7.6 18.3 83 -10 14
09:50 1017 30.03 846 24.98 -7.6 18.3 81 -10.3 13.4
09:55 1017 30.03 846 24.98 -7.4 18.6 82 -10 13.9
10:00 1017 30.03 846 24.98 -7.4 18.7 81 -10.1 13.8
10:05 1017 30.03 846 24.98 -7.1 19.2 80 -9.9 14.1
10:10 1017 30.03 846 24.98 -6.9 19.5 78 -10.2 13.6
10:15 1017 30.03 846 24.98 -6.7 19.9 80 -9.6 14.7
10:20 1017 30.03 846 24.98 -6.7 19.9 81 -9.5 15
10:25 1017 30.03 846 24.98 -6.9 19.5 82 -9.5 14.9
10:30 1017 30.03 846 24.98 -6.8 19.8 80 -9.6 14.7
10:35 1017 30.03 846 24.98 -6.4 20.4 73 -10.6 12.9
10:40 1017 30.03 846 24.98 -6.3 20.6 74 -10.3 13.5
10:45 1017 30.03 846 24.98 -6.3 20.7 70 -10.9 12.4
10:50 1017 30.03 846 24.98 -6.3 20.7 71 -10.7 12.8
10:55 1017 30.03 846 24.98 -6.2 20.8 71 -10.7 12.8
11:00 1017 30.03 846 24.98 -5.9 21.5 70 -10.5 13.1
11:05 1017 30.03 846 24.98 -5.9 21.3 72 -10.3 13.5
11:10 1017 30.03 846 24.98 -6.1 20.9 71 -10.5 13.1
11:15 1017 30.03 846 24.98 -6 21.2 67 -11.2 11.9
11:20 1017 30.03 846 24.98 -5.6 21.9 69 -10.5 13.1
11:25 1017 30.03 846 24.98 -5.5 22.1 67 -10.6 12.9
11:30 1017 30.03 846 24.98 -5.7 21.7 66 -11.2 11.9
11:35 1017 30.03 846 24.98 -5.7 21.7 67 -10.8 12.5
11:40 1017 30.03 846 24.98 -5.9 21.4 65 -11.5 11.3
11:45 1017 30.03 846 24.98 -5.7 21.8 65 -11.2 11.8
11:50 1017 30.03 846 24.98 -5.5 22.2 66 -10.8 12.6
11:55 1017 30.03 846 24.98 -5.4 22.3 64 -11.3 11.7
12:00 1017 30.03 846 24.98 -5.5 22 67 -10.7 12.7
12:05 1017 30.03 846 24.98 -5.6 21.9 67 -10.8 12.5
12:10 1017 30.03 846 24.98 -5.6 22 65 -11.1 12.1
12:15 1017 30.03 846 24.98 -5.8 21.6 67 -10.9 12.4
12:20 1017 30.03 846 24.98 -5.4 22.3 65 -10.9 12.3
12:25 1017 30.03 846 24.98 -5.6 21.9 69 -10.5 13
12:30 1017 30.03 846 24.98 -5.3 22.4 67 -10.6 13
12:35 1017 30.03 846 24.98 -5.5 22.2 65 -11 12.1
12:40 1017 30.03 846 24.98 -5.8 21.5 70 -10.5 13.1
12:45 1017 30.03 846 24.98 -5.7 21.7 69 -10.6 13
12:50 1017 30.03 846 24.98 -5.6 21.9 67 -10.7 12.7
12:55 1017 30.03 846 24.98 -5.4 22.4 68 -10.4 13.2
13:00 1017 30.03 846 24.98 -5.7 21.8 68 -10.7 12.8
13:05 1017 30.03 846 24.98 -5.4 22.4 67 -10.5 13.1
13:10 1017 30.03 846 24.98 -5.5 22.1 70 -10.1 13.8
13:15 1017 30.03 846 24.98 -4.8 23.4 65 -10.4 13.3
13:20 1017 30.03 846 24.98 -4.4 24.1 64 -10.1 13.7
13:25 1017 30.03 846 24.98 -4.9 23.1 66 -10.3 13.5
13:30 1017 30.03 846 24.98 -4.9 23.2 65 -10.4 13.2
13:35 1017 30.03 846 24.98 -4.9 23.2 66 -10.3 13.5
13:40 1017 30.03 846 24.98 -4.7 23.5 68 -9.8 14.4
13:45 1017 30.03 846 24.98 -4.5 24 65 -10.1 13.8
13:50 1017 30.03 846 24.98 -4.7 23.5 65 -10.3 13.5
13:55 1017 30.03 846 24.98 -4.6 23.6 65 -10.2 13.6
14:00 1017 30.03 846 24.98 -4.6 23.8 65 -10.2 13.6
14:05 1017 30.03 846 24.98 -4.4 24.1 62 -10.5 13.1
14:10 1017 30.03 846 24.98 -4.6 23.7 67 -9.9 14.3
14:15 1017 30.03 846 24.98 -4.4 24 64 -10.2 13.6
14:20 1017 30.03 846 24.98 -4.4 24.1 64 -10.3 13.4
14:25 1017 30.03 846 24.98 -4.8 23.4 65 -10.4 13.2
14:30 1017 30.03 846 24.98 -4.6 23.6 63 -10.6 13
14:35 1016 30 846 24.98 -4.6 23.7 64 -10.5 13.1
14:40 1016 30 846 24.98 -5 22.9 64 -10.9 12.4
14:45 1016 30 846 24.98 -5 23.1 62 -11.1 12
14:50 1016 30 846 24.98 -4.7 23.6 62 -10.9 12.4
14:55 1016 30 846 24.98 -4.5 23.8 62 -10.7 12.8
15:00 1016 30 846 24.98 -4.6 23.8 62 -10.8 12.6
15:05 1016 30 846 24.98 -4.4 24 63 -10.5 13.1
15:10 1016 30 846 24.98 -4.6 23.8 64 -10.5 13.1
15:15 1016 30 846 24.98 -4.5 23.8 64 -10.3 13.4
15:20 1016 30 846 24.98 -4.6 23.7 65 -10.2 13.6
15:25 1016 30 846 24.98 -4.8 23.4 65 -10.4 13.3
15:30 1016 30 846 24.98 -4.9 23.1 67 -10.2 13.6
15:35 1016 30 846 24.98 -5.3 22.5 67 -10.4 13.3
15:40 1016 30 846 24.98 -5 23 66 -10.5 13.2
15:45 1016 30 846 24.98 -4.8 23.3 67 -10.1 13.8
15:50 1016 30 846 24.98 -4.8 23.3 65 -10.5 13.1
15:55 1016 30 846 24.98 -5.4 22.4 66 -10.8 12.6
16:00 1016 30 846 24.98 -5.3 22.5 67 -10.4 13.2
16:05 1016 30 845 24.95 -5.2 22.6 66 -10.5 13
16:10 1016 30 846 24.98 -5.4 22.2 68 -10.5 13.1
16:15 1016 30 846 24.98 -5.6 21.9 66 -11 12.1
16:20 1016 30 845 24.95 -5.8 21.6 66 -11.2 11.9
16:25 1016 30 846 24.98 -5.9 21.4 67 -11 12.3
16:30 1016 30 846 24.98 -5.8 21.6 66 -11.1 11.9
16:35 1016 30 846 24.98 -5.9 21.5 65 -11.5 11.4
16:40 1016 30 846 24.98 -5.9 21.3 67 -11.1 12
16:45 1016 30 846 24.98 -5.9 21.4 66 -11.2 11.9
16:50 1016 30 846 24.98 -6 21.3 66 -11.4 11.6
16:55 1016 30 846 24.98 -5.9 21.4 68 -10.8 12.6
17:00 1016 30 846 24.98 -6.1 21.1 69 -10.9 12.5
17:05 1016 30 846 24.98 -6 21.3 68 -10.9 12.4
17:10 1016 30 845 24.95 -6.2 20.9 69 -11 12.1
17:15 1016 30 845 24.95 -6.3 20.7 70 -10.9 12.4
17:20 1016 30 846 24.98 -6.3 20.7 68 -11.2 11.9
17:25 1016 30 846 24.98 -6.4 20.4 68 -11.4 11.5
17:30 1016 30 845 24.95 -6.5 20.4 69 -11.3 11.7
17:35 1016 30 845 24.95 -6.7 20 70 -11.3 11.7
17:40 1016 30 846 24.98 -6.9 19.6 72 -11.1 11.9
17:45 1016 30 845 24.95 -7 19.4 73 -11.1 12
17:50 1016 30 846 24.98 -7 19.4 73 -11.1 12.1
17:55 1016 30 846 24.98 -7.1 19.3 74 -11 12.2
18:00 1017 30.03 846 24.98 -7.2 19 74 -11.1 12
18:05 1017 30.03 846 24.98 -7.3 18.9 74 -11.2 11.9
18:10 1017 30.03 846 24.98 -7.3 18.8 73 -11.4 11.5
18:15 1017 30.03 846 24.98 -7.4 18.7 73 -11.4 11.5
18:20 1017 30.03 846 24.98 -7.4 18.7 74 -11.3 11.6
18:25 1017 30.03 846 24.98 -7.5 18.5 75 -11.2 11.9
18:30 1017 30.03 846 24.98 -7.6 18.4 75 -11.3 11.7
18:35 1017 30.03 846 24.98 -7.6 18.4 76 -11.2 11.9
18:40 1017 30.03 846 24.98 -7.6 18.3 76 -11.2 11.9
18:45 1017 30.03 846 24.98 -7.7 18.1 76 -11.2 11.8
18:50 1017 30.03 846 24.98 -7.8 18 76 -11.2 11.8
18:55 1017 30.03 846 24.98 -7.8 18 77 -11.2 11.8
19:00 1017 30.03 846 24.98 -7.9 17.8 78 -11.1 12
19:05 1017 30.03 846 24.98 -7.9 17.8 77 -11.2 11.8
19:10 1017 30.03 846 24.98 -8 17.6 77 -11.3 11.7
19:15 1017 30.03 846 24.98 -8 17.5 77 -11.3 11.6
19:20 1017 30.03 846 24.98 -8 17.5 77 -11.5 11.4
19:25 1017 30.03 846 24.98 -8.1 17.5 77 -11.4 11.5
19:30 1017 30.03 846 24.98 -8.1 17.4 78 -11.4 11.5
19:35 1017 30.03 846 24.98 -8.2 17.3 78 -11.3 11.6
19:40 1017 30.03 846 24.98 -8.2 17.2 79 -11.3 11.7
19:45 1017 30.03 846 24.98 -8.2 17.2 79 -11.3 11.6
19:50 1017 30.03 846 24.98 -8.3 17.1 80 -11.2 11.9
19:55 1017 30.03 846 24.98 -8.3 17 80 -11.2 11.9
20:00 1017 30.03 846 24.98 -8.3 17 80 -11.1 12
20:05 1017 30.03 846 24.98 -8.3 17 80 -11.2 11.9
20:10 1017 30.03 846 24.98 -8.3 17 80 -11.2 11.9
20:15 1017 30.03 846 24.98 -8.3 17.1 80 -11.1 12
20:20 1017 30.03 846 24.98 -8.3 17.1 80 -11.2 11.8
20:25 1017 30.03 846 24.98 -8.2 17.2 79 -11.2 11.8
20:30 1017 30.03 846 24.98 -8.2 17.2 78 -11.4 11.4
20:35 1017 30.03 846 24.98 -8.2 17.3 78 -11.4 11.4
20:40 1017 30.03 846 24.98 -8.1 17.4 77 -11.4 11.4
20:45 1017 30.03 846 24.98 -8.1 17.4 77 -11.5 11.4
20:50 1017 30.03 846 24.98 -8.2 17.3 77 -11.5 11.2
20:55 1017 30.03 846 24.98 -8.2 17.3 77 -11.5 11.3
21:00 1017 30.03 846 24.98 -8.2 17.2 77 -11.6 11.2
21:05 1017 30.03 846 24.98 -8.2 17.2 77 -11.6 11.2
21:10 1017 30.03 846 24.98 -8.3 17.1 77 -11.6 11.1
21:15 1017 30.03 846 24.98 -8.2 17.2 78 -11.4 11.5
21:20 1017 30.03 846 24.98 -8.3 17 79 -11.4 11.4
21:25 1017 30.03 846 24.98 -8.4 16.9 79 -11.4 11.5
21:30 1017 30.03 846 24.98 -8.4 16.8 79 -11.5 11.4
21:35 1017 30.03 846 24.98 -8.5 16.6 80 -11.4 11.4
21:40 1017 30.03 846 24.98 -8.5 16.8 80 -11.3 11.6
21:45 1017 30.03 846 24.98 -8.4 16.8 80 -11.3 11.6
21:50 1017 30.03 846 24.98 -8.4 16.9 80 -11.3 11.6
21:55 1017 30.03 846 24.98 -8.4 16.8 80 -11.3 11.6
22:00 1017 30.03 846 24.98 -8.5 16.8 80 -11.3 11.7
22:05 1017 30.03 846 24.98 -8.5 16.8 80 -11.3 11.6
22:10 1017 30.03 846 24.98 -8.5 16.7 80 -11.3 11.6
22:15 1017 30.03 846 24.98 -8.5 16.8 80 -11.3 11.7
22:20 1017 30.03 846 24.98 -8.4 16.9 80 -11.3 11.6
22:25 1017 30.03 846 24.98 -8.5 16.8 79 -11.5 11.4
22:30 1017 30.03 846 24.98 -8.4 16.8 78 -11.6 11.1
22:35 1017 30.03 846 24.98 -8.6 16.5 78 -11.7 10.9
22:40 1017 30.03 846 24.98 -8.5 16.6 79 -11.6 11.1
22:45 1017 30.03 846 24.98 -8.5 16.6 79 -11.6 11.1
22:50 1017 30.03 846 24.98 -8.5 16.7 79 -11.6 11.1
22:55 1017 30.03 846 24.98 -8.5 16.7 78 -11.6 11.1
23:00 1017 30.03 846 24.98 -8.5 16.7 78 -11.6 11.1
23:05 1017 30.03 846 24.98 -8.6 16.6 79 -11.7 11
23:10 1017 30.03 846 24.98 -8.5 16.6 79 -11.6 11.1
23:15 1017 30.03 846 24.98 -8.5 16.6 79 -11.6 11.2
23:20 1017 30.03 846 24.98 -8.5 16.6 79 -11.6 11.2
23:25 1017 30.03 846 24.98 -8.5 16.6 78 -11.6 11
23:30 1017 30.03 846 24.98 -8.6 16.6 79 -11.7 11
23:35 1017 30.03 846 24.98 -8.6 16.5 78 -11.8 10.8
23:40 1017 30.03 846 24.98 -8.7 16.4 78 -11.8 10.8
23:45 1017 30.03 846 24.98 -8.8 16.2 79 -11.8 10.7
23:50 1017 30.03 846 24.98 -8.8 16.1 79 -11.9 10.6
23:55 1017 30.03 846 24.98 -8.9 16 79 -11.9 10.5
24:00 1017 30.03 846 24.98 -9 15.9 79 -12 10.5